Time;durP1;ratioP1;P1;durP2;ratioP2;P2;SDS_P1;SDS_P2;PMS_P1;PMS_P2;Temp;Humidity;BMP_temperature;BMP_pressure;BME280_temperature;BME280_humidity;BME280_pressure;Samples;Min_cycle;Max_cycle;Signal;HPM_P1;HPM_P2
2022/07/07 00:02:27;;;;;;;5.10;1.23;;;18.00;1.00;;;;;;6186770;23;20013;-89
2022/07/07 00:04:59;;;;;;;6.00;0.93;;;18.00;1.00;;;;;;6188728;23;20063;-88
2022/07/07 00:07:37;;;;;;;5.97;1.10;;;17.90;1.00;;;;;;6185749;23;20039;-89
2022/07/07 00:10:16;;;;;;;7.68;1.10;;;17.90;1.00;;;;;;6187460;23;20024;-89
2022/07/07 00:12:55;;;;;;;7.25;1.80;;;17.90;1.00;;;;;;6187974;23;20095;-88
2022/07/07 00:15:37;;;;;;;5.72;1.23;;;17.90;1.00;;;;;;6186403;23;20345;-88
2022/07/07 00:18:04;;;;;;;5.07;0.85;;;17.80;1.00;;;;;;6185723;23;20041;-89
2022/07/07 00:20:42;;;;;;;3.60;1.10;;;17.90;1.00;;;;;;6163278;23;20016;-89
2022/07/07 00:23:14;;;;;;;8.85;1.42;;;17.90;1.00;;;;;;6185679;23;20017;-89
2022/07/07 00:25:46;;;;;;;3.47;1.25;;;17.90;1.00;;;;;;6185769;23;20337;-89
2022/07/07 00:28:19;;;;;;;6.30;1.30;;;17.90;1.00;;;;;;6161300;23;20035;-89
2022/07/07 00:30:49;;;;;;;4.78;0.88;;;17.90;1.00;;;;;;6161442;23;20028;-89
2022/07/07 00:33:26;;;;;;;3.22;0.95;;;17.90;1.00;;;;;;6185753;23;20021;-89
2022/07/07 00:36:12;;;;;;;5.10;0.95;;;17.80;1.00;;;;;;6185981;23;20044;-89
2022/07/07 00:38:47;;;;;;;3.92;1.05;;;17.80;1.00;;;;;;6162286;23;20017;-89
2022/07/07 00:41:22;;;;;;;9.35;1.35;;;17.80;1.00;;;;;;6197454;23;20043;-89
2022/07/07 00:43:50;;;;;;;5.82;1.25;;;17.90;1.00;;;;;;6192193;23;20395;-88
2022/07/07 00:46:21;;;;;;;5.40;1.13;;;17.90;1.00;;;;;;6202979;23;20068;-89
2022/07/07 00:48:51;;;;;;;5.10;0.98;;;17.90;1.00;;;;;;6191488;23;20048;-89
2022/07/07 00:51:21;;;;;;;4.80;1.08;;;17.90;1.00;;;;;;6185672;23;20091;-89
2022/07/07 00:53:52;;;;;;;6.40;1.40;;;17.90;1.00;;;;;;6185276;23;20504;-89
2022/07/07 00:56:23;;;;;;;3.72;1.23;;;17.90;1.00;;;;;;6160386;23;20055;-89
2022/07/07 00:59:07;;;;;;;5.53;1.40;;;17.90;1.00;;;;;;6137962;23;20100;-89
2022/07/07 01:01:40;;;;;;;12.38;1.83;;;17.90;1.00;;;;;;6160784;23;20017;-89
2022/07/07 01:04:18;;;;;;;4.05;1.15;;;17.90;1.00;;;;;;6161423;23;20021;-89
2022/07/07 01:06:54;;;;;;;6.45;1.10;;;17.90;1.00;;;;;;6187506;23;20407;-89
2022/07/07 01:09:22;;;;;;;6.03;2.50;;;17.90;1.00;;;;;;6161526;23;20109;-89
2022/07/07 01:11:56;;;;;;;6.40;1.48;;;17.90;1.00;;;;;;6160513;23;20273;-89
2022/07/07 01:14:31;;;;;;;5.22;1.30;;;17.90;1.00;;;;;;6136409;23;20085;-89
2022/07/07 01:17:05;;;;;;;8.85;1.65;;;17.90;1.00;;;;;;6136445;23;20453;-88
2022/07/07 01:19:35;;;;;;;8.30;1.85;;;17.80;1.00;;;;;;6160778;23;20029;-87
2022/07/07 01:22:14;;;;;;;7.75;1.10;;;17.70;1.00;;;;;;6161490;23;20060;-88
2022/07/07 01:24:46;;;;;;;7.65;2.53;;;17.70;1.00;;;;;;6161599;23;20349;-87
2022/07/07 01:27:19;;;;;;;3.60;0.95;;;17.70;1.00;;;;;;6137739;23;20071;-88
2022/07/07 01:29:51;;;;;;;6.10;1.35;;;17.70;1.00;;;;;;6162117;23;20047;-88
2022/07/07 01:32:22;;;;;;;5.70;1.38;;;17.70;1.00;;;;;;6161701;23;20024;-88
2022/07/07 01:35:00;;;;;;;9.10;1.17;;;17.70;1.00;;;;;;6163558;23;20017;-88
2022/07/07 01:37:29;;;;;;;3.20;1.40;;;17.70;1.00;;;;;;6136370;23;20017;-88
2022/07/07 01:40:01;;;;;;;9.82;2.65;;;17.70;1.00;;;;;;6160979;23;20079;-88
2022/07/07 01:42:37;;;;;;;12.75;1.52;;;17.60;1.00;;;;;;6161693;23;20021;-89
2022/07/07 01:45:08;;;;;;;11.68;2.67;;;17.70;1.00;;;;;;6188161;23;20017;-88
2022/07/07 01:47:38;;;;;;;4.95;0.85;;;17.60;1.00;;;;;;6161177;23;20052;-88
2022/07/07 01:50:18;;;;;;;7.63;2.03;;;17.70;1.00;;;;;;6162608;23;20017;-88
2022/07/07 01:52:49;;;;;;;5.72;1.23;;;17.70;1.00;;;;;;6138072;23;20021;-88
2022/07/07 01:55:16;;;;;;;4.57;1.65;;;17.60;1.00;;;;;;6137011;23;20026;-88
2022/07/07 01:57:50;;;;;;;7.18;1.33;;;17.60;1.00;;;;;;6152653;23;20017;-88
2022/07/07 02:00:28;;;;;;;8.15;1.65;;;17.70;1.00;;;;;;6162948;23;20013;-88
2022/07/07 02:03:05;;;;;;;5.35;1.15;;;17.70;1.00;;;;;;6188125;23;20021;-88
2022/07/07 02:05:39;;;;;;;6.00;2.17;;;17.60;1.00;;;;;;6186892;23;20017;-88
2022/07/07 02:08:11;;;;;;;10.15;1.30;;;17.60;1.00;;;;;;6188016;23;20104;-88
2022/07/07 02:13:29;;;;;;;5.78;1.30;;;17.60;1.00;;;;;;6187927;23;20013;-88
2022/07/07 02:16:00;;;;;;;9.32;1.48;;;17.60;1.00;;;;;;6161493;23;20031;-89
2022/07/07 02:18:37;;;;;;;5.70;1.23;;;17.50;1.00;;;;;;6186515;23;20463;-88
2022/07/07 02:21:05;;;;;;;8.38;1.00;;;17.50;1.00;;;;;;6186315;23;20024;-88
2022/07/07 02:23:37;;;;;;;7.35;1.55;;;17.50;1.00;;;;;;6185810;23;20037;-88
2022/07/07 02:26:12;;;;;;;9.00;1.42;;;17.50;1.00;;;;;;6186521;23;20010;-88
2022/07/07 02:28:42;;;;;;;5.50;1.10;;;17.40;1.00;;;;;;6186685;23;20099;-88
2022/07/07 02:31:15;;;;;;;6.40;0.90;;;17.40;1.00;;;;;;6162334;23;20568;-88
2022/07/07 02:33:44;;;;;;;5.07;1.20;;;17.40;1.00;;;;;;6160360;23;20021;-88
2022/07/07 02:36:14;;;;;;;4.53;1.08;;;17.40;1.00;;;;;;6164557;23;20021;-88
2022/07/07 02:38:41;;;;;;;7.43;1.45;;;17.40;1.00;;;;;;6171932;23;20031;-88
2022/07/07 02:41:09;;;;;;;4.88;0.88;;;17.40;1.00;;;;;;6197447;23;20013;-87
2022/07/07 02:43:36;;;;;;;10.40;1.55;;;17.40;1.00;;;;;;6199912;23;20044;-88
2022/07/07 02:46:04;;;;;;;7.30;1.30;;;17.30;1.00;;;;;;6193422;23;20036;-88
2022/07/07 02:48:32;;;;;;;6.00;1.25;;;17.40;1.00;;;;;;6186990;23;20411;-88
2022/07/07 02:51:03;;;;;;;11.77;2.03;;;17.40;1.00;;;;;;6186193;23;20052;-88
2022/07/07 02:53:30;;;;;;;6.97;1.33;;;17.40;1.00;;;;;;6186199;23;20131;-88
2022/07/07 02:56:18;;;;;;;7.70;1.17;;;17.30;1.00;;;;;;6186422;23;20075;-87
2022/07/07 02:58:47;;;;;;;10.10;0.93;;;17.30;1.00;;;;;;6186796;23;20017;-88
2022/07/07 03:01:18;;;;;;;6.35;0.88;;;17.30;1.00;;;;;;6186833;23;20009;-88
2022/07/07 03:03:47;;;;;;;8.73;1.13;;;17.20;1.00;;;;;;6186108;23;20040;-88
2022/07/07 03:06:21;;;;;;;;;;;17.20;1.00;;;;;;6187040;23;20013;-87
2022/07/07 03:08:51;;;;;;;11.50;1.35;;;17.20;1.00;;;;;;6163023;23;19960;-88
2022/07/07 03:11:20;;;;;;;6.13;1.63;;;17.20;1.00;;;;;;6188341;23;20021;-88
2022/07/07 03:13:47;;;;;;;6.15;1.95;;;17.20;1.00;;;;;;6211883;22;20019;-88
2022/07/07 03:16:17;;;;;;;6.40;1.20;;;17.20;1.00;;;;;;6213319;22;20060;-87
2022/07/07 03:18:48;;;;;;;4.95;1.63;;;17.10;1.00;;;;;;6190000;22;20025;-87
2022/07/07 03:21:16;;;;;;;11.00;1.70;;;17.20;1.00;;;;;;6213760;22;20013;-88
2022/07/07 03:23:43;;;;;;;9.55;1.83;;;17.20;1.00;;;;;;6213253;22;20024;-88
2022/07/07 03:26:13;;;;;;;4.68;0.90;;;17.10;1.00;;;;;;6191378;23;20031;-88
2022/07/07 03:28:43;;;;;;;13.35;1.73;;;17.20;1.00;;;;;;6186248;23;20021;-88
2022/07/07 03:31:12;;;;;;;6.28;2.63;;;17.20;1.00;;;;;;6186321;23;20036;-89
2022/07/07 03:33:39;;;;;;;6.95;1.35;;;17.10;1.00;;;;;;6160562;23;20101;-89
2022/07/07 03:36:07;;;;;;;4.45;1.02;;;17.20;1.00;;;;;;6185964;23;20096;-87
2022/07/07 03:38:34;;;;;;;6.35;1.15;;;17.20;1.00;;;;;;6185206;23;20036;-88
2022/07/07 03:41:01;;;;;;;6.32;1.10;;;17.10;1.00;;;;;;6185413;23;20041;-88
2022/07/07 03:43:29;;;;;;;12.07;1.42;;;17.10;1.00;;;;;;6160807;23;20107;-88
2022/07/07 03:45:56;;;;;;;12.00;1.67;;;17.10;1.00;;;;;;6159663;23;20040;-88
2022/07/07 03:48:24;;;;;;;6.70;1.75;;;17.20;1.00;;;;;;6183087;23;20514;-88
2022/07/07 03:50:51;;;;;;;6.03;1.55;;;17.10;1.00;;;;;;6183637;23;20402;-88
2022/07/07 03:53:18;;;;;;;8.00;1.60;;;17.10;1.00;;;;;;6185469;23;20017;-88
2022/07/07 03:55:57;;;;;;;17.20;1.48;;;17.00;1.00;;;;;;6159989;23;20021;-88
2022/07/07 03:58:28;;;;;;;7.60;1.88;;;16.90;1.00;;;;;;6184017;23;20013;-88
2022/07/07 04:01:01;;;;;;;8.60;1.20;;;16.90;1.00;;;;;;6136806;23;20024;-89
2022/07/07 04:03:37;;;;;;;11.30;1.65;;;16.90;1.00;;;;;;6137995;23;20021;-89
2022/07/07 04:06:07;;;;;;;7.82;1.65;;;17.00;1.00;;;;;;6136613;23;20023;-87
2022/07/07 04:08:34;;;;;;;5.68;1.33;;;16.90;1.00;;;;;;6160480;23;20029;-87
2022/07/07 04:11:27;;;;;;;5.72;1.02;;;16.90;1.00;;;;;;6160893;23;20385;-90
2022/07/07 04:13:54;;;;;;;6.28;1.73;;;16.90;1.00;;;;;;6186385;23;20021;-88
2022/07/07 04:16:24;;;;;;;6.90;1.17;;;16.90;1.00;;;;;;6186402;23;20017;-90
2022/07/07 04:18:52;;;;;;;7.75;1.73;;;16.90;1.00;;;;;;6135621;23;20366;-89
2022/07/07 04:21:19;;;;;;;9.25;1.55;;;16.80;1.00;;;;;;6135841;23;20016;-89
2022/07/07 04:24:21;;;;;;;;;;;;;;;;;;;;;
2022/07/07 04:27:54;;;;;;;8.85;1.17;;;16.90;1.00;;;;;;6172457;23;20036;-90
2022/07/07 04:31:07;;;;;;;1.98;0.70;;;16.90;1.00;;;;;;6174064;23;20017;-89
2022/07/07 04:33:47;;;;;;;10.18;1.60;;;16.90;1.00;;;;;;6140708;23;20025;-89
2022/07/07 04:36:30;;;;;;;5.88;1.08;;;16.80;1.00;;;;;;6143737;23;20089;-90
2022/07/07 04:39:55;;;;;;;4.88;1.05;;;16.80;1.00;;;;;;6181331;23;20396;-90
2022/07/07 04:42:57;;;;;;;7.40;1.40;;;16.90;1.00;;;;;;6183069;23;20009;-89
2022/07/07 04:45:43;;;;;;;2.40;0.63;;;16.80;1.00;;;;;;6155893;23;20024;-90
2022/07/07 09:13:32;;;;;;;6.28;1.58;;;17.60;1.00;;;;;;6214521;23;20024;-89
2022/07/07 09:16:23;;;;;;;7.78;0.98;;;17.60;1.00;;;;;;6180489;23;20071;-89
2022/07/07 09:19:28;;;;;;;7.35;0.77;;;17.70;1.00;;;;;;6157769;23;20021;-89
2022/07/07 09:23:24;;;;;;;6.68;1.52;;;17.70;1.00;;;;;;6183936;23;20317;-89
2022/07/07 09:27:32;;;;;;;;;;;;;;;;;;;;;
2022/07/07 09:38:13;;;;;;;7.10;1.42;;;17.40;1.00;;;;;;6185455;23;20091;-89
2022/07/07 09:38:17;;;;;;;9.95;1.30;;;17.70;1.00;;;;;;6173489;23;20028;-89
2022/07/07 09:45:40;;;;;;;9.95;1.30;;;17.90;1.00;;;;;;6187759;23;20516;-89
2022/07/07 09:49:12;;;;;;;3.05;0.65;;;18.10;1.00;;;;;;6037338;23;20019;-89
2022/07/07 09:52:45;;;;;;;4.78;0.80;;;18.10;1.00;;;;;;6024306;23;20412;-89
2022/07/07 09:55:45;;;;;;;3.83;0.90;;;18.00;1.00;;;;;;6064648;23;20023;-89
2022/07/07 09:59:01;;;;;;;6.53;1.15;;;18.10;1.00;;;;;;6067819;23;20362;-89
2022/07/07 10:02:43;;;;;;;7.53;1.42;;;18.10;1.00;;;;;;6043543;23;20469;-89
2022/07/07 10:05:50;;;;;;;7.03;1.02;;;18.10;1.00;;;;;;6041881;23;20011;-89
2022/07/07 10:09:09;;;;;;;7.75;0.98;;;18.10;1.00;;;;;;6067239;23;20018;-89
2022/07/07 10:11:48;;;;;;;11.50;1.10;;;18.10;1.00;;;;;;6052452;23;20019;-89
2022/07/07 10:15:19;;;;;;;5.78;2.03;;;18.20;1.00;;;;;;6062839;23;20019;-89
2022/07/07 10:18:33;;;;;;;23.17;1.80;;;18.20;1.00;;;;;;6068107;23;20026;-89
2022/07/07 10:21:34;;;;;;;13.70;2.45;;;18.40;1.00;;;;;;6065640;23;20019;-89
2022/07/07 10:24:41;;;;;;;4.20;1.45;;;18.60;1.00;;;;;;6046815;23;20078;-89
2022/07/07 10:27:31;;;;;;;5.93;1.00;;;18.60;1.00;;;;;;6185704;23;20071;-89
2022/07/07 10:38:26;;;;;;;8.35;2.38;;;18.30;1.00;;;;;;6166082;23;20044;-89
2022/07/07 10:41:21;;;;;;;10.43;1.70;;;18.50;1.00;;;;;;6159672;23;20326;-89
2022/07/07 10:44:19;;;;;;;12.40;1.10;;;18.60;1.00;;;;;;6100756;23;20014;-89
2022/07/07 10:52:15;;;;;;;8.80;1.50;;;18.60;1.00;;;;;;6124363;23;20017;-89
2022/07/07 10:59:15;;;;;;;;;;;;;;;;;;;;;
2022/07/07 11:03:17;;;;;;;;;;;;;;;;;;;;;
2022/07/07 11:06:47;;;;;;;6.50;0.98;;;19.10;1.00;;;;;;5954039;24;20089;-91
2022/07/07 12:03:40;;;;;;;6.45;0.85;;;19.30;1.00;;;;;;6147435;23;20012;-89
2022/07/07 12:15:47;;;;;;;5.40;1.65;;;19.40;1.00;;;;;;6057742;23;20019;-91
2022/07/07 12:19:29;;;;;;;;;;;;;;;;;;;;;
2022/07/07 12:30:42;;;;;;;2.85;0.85;;;19.80;1.00;;;;;;6177879;23;20040;-90
2022/07/07 13:02:03;;;;;;;5.00;1.88;;;19.50;1.00;;;;;;6216115;23;20111;-89
2022/07/07 13:05:31;;;;;;;4.60;1.33;;;19.90;1.00;;;;;;6165301;23;20016;-90
2022/07/07 13:08:44;;;;;;;6.35;1.27;;;20.00;1.00;;;;;;6153362;23;20032;-89
2022/07/07 13:12:25;;;;;;;9.93;1.60;;;19.80;1.00;;;;;;6152730;23;20100;-89
2022/07/07 13:15:50;;;;;;;4.32;0.68;;;19.80;1.00;;;;;;6198507;23;20031;-89
2022/07/07 13:19:24;;;;;;;4.78;1.27;;;19.70;1.00;;;;;;6217642;23;20455;-89
2022/07/07 13:22:47;;;;;;;6.53;0.77;;;19.90;1.00;;;;;;6178237;23;20145;-90
2022/07/07 13:26:40;;;;;;;;;;;;;;;;;;;;;
2022/07/07 13:30:33;;;;;;;3.78;1.10;;;19.80;1.00;;;;;;6218828;23;20020;-89
2022/07/07 13:34:39;;;;;;;7.47;1.15;;;19.70;1.00;;;;;;6200837;23;20078;-89
2022/07/07 13:37:52;;;;;;;5.45;1.48;;;19.70;1.00;;;;;;6116248;23;20101;-88
2022/07/07 13:41:27;;;;;;;4.32;0.80;;;20.20;1.00;;;;;;6108663;23;20094;-89
2022/07/07 13:53:43;;;;;;;4.78;1.30;;;19.90;1.00;;;;;;6126507;23;20516;-91
2022/07/07 14:04:58;;;;;;;8.63;1.35;;;19.70;1.00;;;;;;6131531;22;20021;-87
2022/07/07 14:07:25;;;;;;;3.28;0.73;;;19.60;1.00;;;;;;6187341;23;20063;-88
2022/07/07 14:09:52;;;;;;;11.52;1.27;;;19.70;1.00;;;;;;6188268;23;20044;-85
2022/07/07 14:12:51;;;;;;;9.23;1.58;;;19.70;1.00;;;;;;6188031;23;20075;-88
2022/07/07 14:44:08;;;;;;;11.38;1.92;;;19.40;1.00;;;;;;6217113;23;20361;-92
2022/07/07 14:46:40;;;;;;;4.63;1.30;;;19.30;1.00;;;;;;6217057;23;20070;-90
2022/07/07 14:49:10;;;;;;;5.70;2.10;;;19.50;1.00;;;;;;6215687;23;20104;-90
2022/07/07 14:51:38;;;;;;;7.97;1.73;;;19.60;1.00;;;;;;6215045;23;20327;-90
2022/07/07 14:54:05;;;;;;;5.43;1.30;;;19.70;1.00;;;;;;6215242;23;20348;-90
2022/07/07 14:56:33;;;;;;;5.28;2.33;;;19.50;1.00;;;;;;6215533;23;20035;-89
2022/07/07 14:59:00;;;;;;;5.80;0.95;;;19.10;1.00;;;;;;6215754;23;20025;-89
2022/07/07 15:01:27;;;;;;;5.57;0.95;;;19.30;1.00;;;;;;6216914;23;20013;-89
2022/07/07 15:03:55;;;;;;;10.80;2.03;;;19.20;1.00;;;;;;6215531;23;20486;-89
2022/07/07 15:06:23;;;;;;;9.52;1.63;;;19.40;1.00;;;;;;6216955;23;20027;-88
2022/07/07 15:08:52;;;;;;;6.00;1.77;;;19.30;1.00;;;;;;6215640;23;20047;-89
2022/07/07 15:11:19;;;;;;;4.95;1.25;;;19.60;1.00;;;;;;6190930;23;20020;-89
2022/07/07 15:13:52;;;;;;;6.05;1.55;;;19.60;1.00;;;;;;6215317;23;20027;-89
2022/07/07 15:16:22;;;;;;;5.93;1.58;;;19.70;1.00;;;;;;6216060;23;20023;-89
2022/07/07 15:18:49;;;;;;;8.18;1.00;;;19.70;1.00;;;;;;6215763;23;20019;-89
2022/07/07 15:21:16;;;;;;;9.27;1.58;;;19.30;1.00;;;;;;6215242;23;20108;-90
2022/07/07 15:23:43;;;;;;;6.35;1.15;;;19.40;1.00;;;;;;6190530;23;20051;-90
2022/07/07 15:26:11;;;;;;;6.88;2.08;;;19.70;1.00;;;;;;6216815;23;20035;-89
2022/07/07 15:28:38;;;;;;;9.25;1.25;;;19.60;1.00;;;;;;6190155;23;20035;-90
2022/07/07 15:31:05;;;;;;;4.80;1.13;;;19.60;1.00;;;;;;6216614;23;20020;-89
2022/07/07 15:33:35;;;;;;;5.82;1.23;;;19.80;1.00;;;;;;6214836;23;20021;-90
2022/07/07 15:36:03;;;;;;;4.75;0.95;;;19.50;1.00;;;;;;6215762;23;20013;-89
2022/07/07 15:38:33;;;;;;;7.20;1.30;;;19.60;1.00;;;;;;6215235;23;20044;-90
2022/07/07 15:41:09;;;;;;;9.38;1.17;;;19.70;1.00;;;;;;6190509;23;20482;-89
2022/07/07 15:43:38;;;;;;;5.22;1.00;;;19.70;1.00;;;;;;6189623;23;20055;-90
2022/07/07 15:46:06;;;;;;;3.15;1.15;;;19.90;1.00;;;;;;6215256;23;20039;-89
2022/07/07 15:48:34;;;;;;;7.35;1.02;;;19.60;1.00;;;;;;6214656;23;20083;-89
2022/07/07 15:51:01;;;;;;;5.22;0.98;;;19.70;1.00;;;;;;6215387;23;20013;-89
2022/07/07 15:53:31;;;;;;;5.55;1.05;;;19.60;1.00;;;;;;6215339;23;20016;-89
2022/07/07 15:55:59;;;;;;;10.02;1.48;;;19.40;1.00;;;;;;6191005;23;20071;-90
2022/07/07 15:58:49;;;;;;;3.42;0.98;;;19.70;1.00;;;;;;6216683;23;20016;-89
2022/07/07 16:01:24;;;;;;;6.03;1.10;;;19.70;1.00;;;;;;6216032;23;20082;-91
2022/07/07 16:06:43;;;;;;;3.60;0.80;;;19.70;1.00;;;;;;6214936;23;20444;-87
2022/07/07 16:09:10;;;;;;;5.63;1.15;;;19.80;1.00;;;;;;6215986;23;20103;-87
2022/07/07 16:11:37;;;;;;;7.38;1.30;;;19.80;1.00;;;;;;6214708;23;20081;-87
2022/07/07 16:14:04;;;;;;;3.88;0.88;;;19.60;1.00;;;;;;6214519;23;20028;-90
2022/07/07 16:16:31;;;;;;;6.32;1.00;;;19.70;1.00;;;;;;6215267;23;20025;-87
2022/07/07 16:18:58;;;;;;;6.68;1.00;;;19.30;1.00;;;;;;6196731;23;20084;-86
2022/07/07 16:21:25;;;;;;;4.30;0.93;;;19.50;1.00;;;;;;6228375;23;20013;-89
2022/07/07 16:25:19;;;;;;;;;;;;;;;;;;;;;
2022/07/07 16:29:20;;;;;;;4.95;0.90;;;19.50;1.00;;;;;;6210720;23;20013;-90
2022/07/07 16:41:24;;;;;;;;;;;;;;;;;;;;;
2022/07/07 16:57:55;;;;;;;2.75;1.17;;;19.40;1.00;;;;;;6097905;23;20030;-90
2022/07/07 17:01:22;;;;;;;4.07;0.98;;;19.40;1.00;;;;;;6105677;23;20082;-90
2022/07/07 17:05:10;;;;;;;2.17;0.60;;;19.10;1.00;;;;;;6101286;23;20042;-90
2022/07/07 17:08:15;;;;;;;3.42;0.45;;;19.30;1.00;;;;;;6123685;23;20141;-91
2022/07/07 17:11:21;;;;;;;;;;;;;;;;;;;;;
2022/07/07 17:14:40;;;;;;;6.45;1.45;;;19.10;1.00;;;;;;5989298;23;20034;-88
2022/07/07 17:17:07;;;;;;;3.20;0.70;;;19.10;1.00;;;;;;6016129;23;20028;-88
2022/07/07 17:19:34;;;;;;;2.15;0.93;;;19.10;1.00;;;;;;6012557;23;20019;-88
2022/07/07 17:22:02;;;;;;;2.80;0.38;;;19.20;1.00;;;;;;6011946;23;20446;-88
2022/07/07 17:24:28;;;;;;;2.35;0.93;;;19.30;1.00;;;;;;6021679;23;20037;-90
2022/07/07 17:26:55;;;;;;;3.35;1.02;;;19.30;1.00;;;;;;6107828;23;20028;-88
2022/07/07 17:29:57;;;;;;;4.13;1.25;;;19.40;1.00;;;;;;6132295;23;20036;-90
2022/07/07 17:32:58;;;;;;;6.00;1.25;;;19.40;1.00;;;;;;5937830;23;20087;-90
2022/07/07 17:52:34;;;;;;;3.75;0.75;;;19.10;1.00;;;;;;6081782;23;1783282;-90
2022/07/07 17:55:31;;;;;;;2.83;0.82;;;19.10;1.00;;;;;;6087062;23;20033;-90
2022/07/07 17:58:35;;;;;;;5.03;0.95;;;18.90;1.00;;;;;;6082783;23;20014;-91
2022/07/07 18:05:05;;;;;;;5.93;1.08;;;18.70;1.00;;;;;;6080987;23;20030;-93
2022/07/07 18:07:34;;;;;;;8.82;2.13;;;18.90;1.00;;;;;;6082325;23;20062;-92
2022/07/07 18:10:02;;;;;;;8.30;1.10;;;18.80;1.00;;;;;;6080572;23;20476;-91
2022/07/07 18:12:49;;;;;;;8.98;1.33;;;18.80;1.00;;;;;;6057996;23;20029;-91
2022/07/07 18:15:16;;;;;;;7.63;0.85;;;18.90;1.00;;;;;;6058854;23;20026;-86
2022/07/07 18:17:43;;;;;;;7.22;1.10;;;18.60;1.00;;;;;;6088696;23;20458;-87
2022/07/07 18:20:11;;;;;;;5.75;1.02;;;18.80;1.00;;;;;;6085679;23;20033;-86
2022/07/07 18:22:38;;;;;;;6.40;1.35;;;18.90;1.00;;;;;;6064094;23;20076;-88
2022/07/07 18:25:06;;;;;;;5.57;1.60;;;18.90;1.00;;;;;;6081196;23;20018;-88
2022/07/07 18:27:34;;;;;;;4.38;1.08;;;18.80;1.00;;;;;;6080360;23;20446;-86
2022/07/07 18:30:01;;;;;;;4.38;0.65;;;18.70;1.00;;;;;;6056362;23;20037;-88
2022/07/07 18:32:29;;;;;;;3.83;0.82;;;18.60;1.00;;;;;;6105848;23;20018;-88
2022/07/07 18:34:56;;;;;;;2.95;1.25;;;18.60;1.00;;;;;;6080078;23;20687;-88
2022/07/07 18:37:23;;;;;;;4.22;0.88;;;18.60;1.00;;;;;;6080021;23;20460;-86
2022/07/07 18:39:50;;;;;;;3.58;0.63;;;18.70;1.00;;;;;;6105999;23;20335;-86
2022/07/07 18:42:17;;;;;;;3.60;0.85;;;18.70;1.00;;;;;;6079986;23;20018;-85
2022/07/07 18:44:44;;;;;;;5.10;1.10;;;18.60;1.00;;;;;;6079695;23;20022;-86
2022/07/07 18:47:11;;;;;;;3.47;0.70;;;18.60;1.00;;;;;;6056337;23;20082;-87
2022/07/07 18:49:38;;;;;;;4.03;1.17;;;18.70;1.00;;;;;;6076539;23;20028;-88
2022/07/07 18:52:06;;;;;;;4.63;0.85;;;18.80;1.00;;;;;;6068440;23;20026;-86
2022/07/07 18:54:33;;;;;;;4.32;1.00;;;18.70;1.00;;;;;;6070159;23;20046;-90
2022/07/07 19:00:48;;;;;;;5.20;0.63;;;18.70;1.00;;;;;;6069265;23;20112;-89
2022/07/07 19:08:00;;;;;;;4.47;1.17;;;18.60;1.00;;;;;;5939454;24;20152;-89
2022/07/07 19:10:27;;;;;;;5.63;0.80;;;18.60;1.00;;;;;;5982518;24;20051;-89
2022/07/07 19:12:55;;;;;;;3.72;0.80;;;18.60;1.00;;;;;;5982167;24;20047;-89
2022/07/07 19:15:22;;;;;;;3.38;1.00;;;18.20;1.00;;;;;;5982698;23;20024;-89
2022/07/07 19:17:55;;;;;;;10.18;1.58;;;18.20;1.00;;;;;;5958761;24;20072;-90
2022/07/07 19:20:25;;;;;;;2.90;1.15;;;18.20;1.00;;;;;;5959599;24;20113;-88
2022/07/07 19:22:55;;;;;;;6.68;1.38;;;18.20;1.00;;;;;;5954752;24;20017;-88
2022/07/07 19:25:28;;;;;;;5.43;0.95;;;18.30;1.00;;;;;;5954157;24;20024;-89
2022/07/07 19:28:04;;;;;;;3.38;0.77;;;18.40;1.00;;;;;;5952025;24;20495;-89
2022/07/07 19:30:34;;;;;;;5.05;1.00;;;18.10;1.00;;;;;;5928224;24;20063;-89
2022/07/07 19:33:02;;;;;;;5.85;1.33;;;18.10;1.00;;;;;;5957594;24;20028;-89
2022/07/07 19:35:29;;;;;;;3.65;0.80;;;18.00;1.00;;;;;;5955132;24;20051;-88
2022/07/07 19:38:06;;;;;;;5.72;0.82;;;18.00;1.00;;;;;;6004460;23;20066;-89
2022/07/07 19:40:43;;;;;;;2.75;1.17;;;17.90;1.00;;;;;;6068494;23;20023;-89
2022/07/07 19:43:13;;;;;;;6.65;1.08;;;18.00;1.00;;;;;;6044411;23;20018;-88
2022/07/07 19:45:47;;;;;;;3.03;1.15;;;18.00;1.00;;;;;;6043836;23;20053;-89
2022/07/07 19:48:21;;;;;;;6.32;0.98;;;17.90;1.00;;;;;;6069472;23;20055;-88
2022/07/07 19:51:02;;;;;;;6.53;1.02;;;17.80;1.00;;;;;;6088291;23;20114;-89
2022/07/07 19:53:45;;;;;;;5.10;0.70;;;17.80;1.00;;;;;;6117277;23;20005;-89
2022/07/07 19:56:16;;;;;;;6.57;0.70;;;17.90;1.00;;;;;;6075331;23;20037;-88
2022/07/07 19:58:43;;;;;;;4.80;1.95;;;17.90;1.00;;;;;;6099983;23;20009;-88
2022/07/07 20:01:13;;;;;;;4.25;0.65;;;17.80;1.00;;;;;;6100301;23;20002;-88
2022/07/07 20:03:56;;;;;;;4.45;0.70;;;17.70;1.00;;;;;;6073225;23;20038;-89
2022/07/07 20:06:33;;;;;;;9.63;1.00;;;17.80;1.00;;;;;;6073808;23;20382;-89
2022/07/07 20:09:04;;;;;;;4.05;0.90;;;17.60;1.00;;;;;;6098242;23;20018;-89
2022/07/07 20:11:31;;;;;;;4.18;0.68;;;17.60;1.00;;;;;;6049066;23;20466;-88
2022/07/07 20:14:05;;;;;;;6.45;0.80;;;17.60;1.00;;;;;;6105967;23;20025;-88
2022/07/07 20:16:48;;;;;;;5.32;0.75;;;17.40;1.00;;;;;;6104905;23;20018;-88
2022/07/07 20:19:16;;;;;;;4.63;0.70;;;17.50;1.00;;;;;;6085934;23;20029;-88
2022/07/07 20:21:48;;;;;;;4.20;0.85;;;17.60;1.00;;;;;;6077874;23;20077;-88
2022/07/07 20:24:46;;;;;;;7.10;1.02;;;17.50;1.00;;;;;;6056766;23;20006;-89
2022/07/07 20:27:45;;;;;;;3.15;0.90;;;17.50;1.00;;;;;;6054440;23;20029;-90
2022/07/07 20:53:51;;;;;;;5.95;0.82;;;17.30;1.00;;;;;;6036529;23;20023;-90
2022/07/07 20:56:31;;;;;;;;;;;17.40;1.00;;;;;;6013551;23;20023;-89
2022/07/07 20:59:01;;;;;;;4.22;1.25;;;17.40;1.00;;;;;;6015820;23;19917;-90
2022/07/07 21:01:33;;;;;;;4.57;1.05;;;17.40;1.00;;;;;;6015610;23;20024;-89
2022/07/07 21:04:06;;;;;;;3.08;0.90;;;17.30;1.00;;;;;;6039724;23;20038;-88
2022/07/07 21:06:39;;;;;;;6.25;0.98;;;17.30;1.00;;;;;;5992120;23;20119;-90
2022/07/07 21:09:07;;;;;;;;;;;17.30;1.00;;;;;;6016157;23;20028;-89
2022/07/07 21:11:34;;;;;;;9.63;1.35;;;17.40;1.00;;;;;;6016120;23;19921;-89
2022/07/07 21:14:01;;;;;;;3.95;1.02;;;17.30;1.00;;;;;;6015204;23;20031;-88
2022/07/07 21:16:29;;;;;;;7.57;1.05;;;17.40;1.00;;;;;;5992984;23;20051;-89
2022/07/07 21:18:56;;;;;;;9.30;1.08;;;17.50;1.00;;;;;;6040887;23;20022;-89
2022/07/07 21:21:27;;;;;;;3.60;0.57;;;17.40;1.00;;;;;;6016947;23;20015;-89
2022/07/07 21:24:02;;;;;;;4.93;1.15;;;17.30;1.00;;;;;;6016250;23;20074;-89
2022/07/07 21:26:51;;;;;;;2.42;0.77;;;17.30;1.00;;;;;;6016205;23;20040;-89
2022/07/07 21:29:19;;;;;;;8.18;1.23;;;17.30;1.00;;;;;;6015625;23;20023;-89
2022/07/07 21:31:56;;;;;;;2.85;1.20;;;17.40;1.00;;;;;;6039067;23;20079;-89
2022/07/07 21:34:30;;;;;;;5.82;0.73;;;17.30;1.00;;;;;;6016121;23;20055;-88
2022/07/07 21:37:03;;;;;;;2.47;0.55;;;17.30;1.00;;;;;;6016096;23;20075;-89
2022/07/07 21:39:36;;;;;;;6.20;0.80;;;17.30;1.00;;;;;;6039573;23;20375;-89
2022/07/07 21:42:05;;;;;;;8.00;1.75;;;17.20;1.00;;;;;;6015843;23;20019;-91
2022/07/07 21:44:35;;;;;;;4.93;1.65;;;17.20;1.00;;;;;;6015373;23;20050;-89
2022/07/07 21:47:07;;;;;;;4.00;0.90;;;17.20;1.00;;;;;;6038939;23;20016;-89
2022/07/07 21:49:38;;;;;;;6.20;0.85;;;17.00;1.00;;;;;;6015406;23;20039;-90
2022/07/07 21:52:09;;;;;;;2.65;0.73;;;17.10;1.00;;;;;;6006732;23;20041;-90
2022/07/07 21:54:41;;;;;;;1.90;0.63;;;17.00;1.00;;;;;;6039326;23;20019;-89
2022/07/07 21:57:13;;;;;;;1.88;0.80;;;16.90;1.00;;;;;;6037452;23;20318;-89
2022/07/07 21:59:44;;;;;;;4.30;0.75;;;16.90;1.00;;;;;;6037631;23;20448;-89
2022/07/07 22:02:11;;;;;;;3.40;0.63;;;17.00;1.00;;;;;;6014510;23;20023;-88
2022/07/07 22:07:30;;;;;;;10.82;1.05;;;17.00;1.00;;;;;;6041085;23;20091;-89
2022/07/07 22:09:57;;;;;;;6.07;0.88;;;17.00;1.00;;;;;;6015717;23;20027;-89
2022/07/07 22:12:28;;;;;;;1.75;0.55;;;16.90;1.00;;;;;;6048189;23;20015;-89
2022/07/07 22:15:01;;;;;;;4.45;0.60;;;17.00;1.00;;;;;;6047884;23;20071;-89
2022/07/07 22:17:28;;;;;;;2.20;0.63;;;16.90;1.00;;;;;;6055332;23;20015;-89
2022/07/07 22:19:56;;;;;;;2.45;0.80;;;17.00;1.00;;;;;;6023815;23;20046;-89
2022/07/07 22:22:28;;;;;;;4.53;1.10;;;16.80;1.00;;;;;;6014834;23;20023;-89
2022/07/07 22:24:58;;;;;;;5.20;0.75;;;16.80;1.00;;;;;;6016678;23;20015;-88
2022/07/07 22:27:28;;;;;;;6.63;1.52;;;16.90;1.00;;;;;;6041223;23;20024;-89
2022/07/07 22:29:59;;;;;;;6.25;1.77;;;16.80;1.00;;;;;;6017665;23;20176;-89
2022/07/07 22:32:26;;;;;;;6.70;0.77;;;16.90;1.00;;;;;;6017187;23;20351;-89
2022/07/07 22:34:54;;;;;;;5.15;1.33;;;16.90;1.00;;;;;;6041177;23;20102;-89
2022/07/07 22:37:24;;;;;;;9.32;1.23;;;16.90;1.00;;;;;;6041865;23;20098;-88
2022/07/07 22:39:56;;;;;;;6.00;0.70;;;16.90;1.00;;;;;;6020845;23;20135;-89
2022/07/07 22:42:29;;;;;;;3.90;0.93;;;16.90;1.00;;;;;;6031251;23;20067;-89
2022/07/07 22:44:56;;;;;;;4.03;0.82;;;16.90;1.00;;;;;;6031000;23;20030;-89
2022/07/07 22:47:26;;;;;;;4.85;0.70;;;16.80;1.00;;;;;;6039047;23;20063;-90
2022/07/07 22:49:59;;;;;;;6.90;1.00;;;16.70;1.00;;;;;;6066445;23;20011;-89
2022/07/07 22:52:26;;;;;;;3.05;0.65;;;16.80;1.00;;;;;;6037671;23;20027;-89
2022/07/07 22:54:53;;;;;;;3.13;0.80;;;16.80;1.00;;;;;;6070987;23;20078;-89
2022/07/07 22:57:21;;;;;;;10.38;1.25;;;16.70;1.00;;;;;;6071326;23;20041;-89
2022/07/07 22:59:49;;;;;;;3.88;1.30;;;16.70;1.00;;;;;;6069852;23;20042;-89